< < Back
Terminal Aerodrome Forecast


Current Version              Previous Versions:   1  2  3  4  5  6  7  8  9  

Terminal Aerodrome Forecast

503
FTUS42 KTAE 242320
TAFABY
TAF
KABY 242320Z 2500/2524 VRB03KT P6SM FEW050
     FM251500 17006KT P6SM SKC=

Latest METAR

327
SAUS70 KWBC 250056
MTRABY
METAR KABY 250053Z AUTO 00000KT 10SM CLR 24/12 A3013 RMK AO2 SLP202
T02440117


USA.gov is the U.S. government's official web portal to all federal, state and local government web resources and services.